sensor_id;sensor_type;location;lat;lon;timestamp;temperature;humidity
13332;DHT22;6735;51.456;12.626;2023-11-19T00:01:32;5.70;88.20
13332;DHT22;6735;51.456;12.626;2023-11-19T00:03:58;5.70;88.40
13332;DHT22;6735;51.456;12.626;2023-11-19T00:06:23;5.60;88.40
13332;DHT22;6735;51.456;12.626;2023-11-19T00:08:50;5.70;88.30
13332;DHT22;6735;51.456;12.626;2023-11-19T00:11:15;5.70;88.40
13332;DHT22;6735;51.456;12.626;2023-11-19T00:13:41;5.70;88.30
13332;DHT22;6735;51.456;12.626;2023-11-19T00:16:07;5.70;88.30
13332;DHT22;6735;51.456;12.626;2023-11-19T00:18:32;5.70;88.40
13332;DHT22;6735;51.456;12.626;2023-11-19T00:20:58;5.70;88.40
13332;DHT22;6735;51.456;12.626;2023-11-19T00:23:23;5.70;88.40
13332;DHT22;6735;51.456;12.626;2023-11-19T00:25:49;5.70;88.40
13332;DHT22;6735;51.456;12.626;2023-11-19T00:28:14;5.70;88.50
13332;DHT22;6735;51.456;12.626;2023-11-19T00:30:40;5.70;88.40
13332;DHT22;6735;51.456;12.626;2023-11-19T00:33:08;5.70;88.70
13332;DHT22;6735;51.456;12.626;2023-11-19T00:35:34;5.70;88.70
13332;DHT22;6735;51.456;12.626;2023-11-19T00:37:59;5.70;88.80
13332;DHT22;6735;51.456;12.626;2023-11-19T00:40:25;5.70;88.90
13332;DHT22;6735;51.456;12.626;2023-11-19T00:42:51;5.70;89.10
13332;DHT22;6735;51.456;12.626;2023-11-19T00:45:16;5.70;89.00
13332;DHT22;6735;51.456;12.626;2023-11-19T00:47:42;5.70;89.10
13332;DHT22;6735;51.456;12.626;2023-11-19T00:50:08;5.60;89.30
13332;DHT22;6735;51.456;12.626;2023-11-19T00:52:38;5.60;89.40
13332;DHT22;6735;51.456;12.626;2023-11-19T00:55:04;5.60;89.60
13332;DHT22;6735;51.456;12.626;2023-11-19T00:57:31;5.60;89.60
13332;DHT22;6735;51.456;12.626;2023-11-19T00:59:58;5.60;89.70
13332;DHT22;6735;51.456;12.626;2023-11-19T01:02:24;5.60;89.80
13332;DHT22;6735;51.456;12.626;2023-11-19T01:04:50;5.60;89.70
13332;DHT22;6735;51.456;12.626;2023-11-19T01:07:16;5.60;89.80
13332;DHT22;6735;51.456;12.626;2023-11-19T01:09:42;5.60;89.90
13332;DHT22;6735;51.456;12.626;2023-11-19T01:12:08;5.60;89.90
13332;DHT22;6735;51.456;12.626;2023-11-19T01:14:35;5.60;89.80
13332;DHT22;6735;51.456;12.626;2023-11-19T01:17:01;5.60;89.80
13332;DHT22;6735;51.456;12.626;2023-11-19T01:19:26;5.60;89.70
13332;DHT22;6735;51.456;12.626;2023-11-19T01:21:54;5.60;89.80
13332;DHT22;6735;51.456;12.626;2023-11-19T01:24:19;5.60;89.90
13332;DHT22;6735;51.456;12.626;2023-11-19T01:26:45;5.60;89.90
13332;DHT22;6735;51.456;12.626;2023-11-19T01:29:15;5.70;89.80
13332;DHT22;6735;51.456;12.626;2023-11-19T01:31:45;5.70;89.90
13332;DHT22;6735;51.456;12.626;2023-11-19T01:34:11;5.60;90.00
13332;DHT22;6735;51.456;12.626;2023-11-19T01:36:37;5.60;89.90
13332;DHT22;6735;51.456;12.626;2023-11-19T01:39:03;5.60;90.00
13332;DHT22;6735;51.456;12.626;2023-11-19T01:41:36;5.70;90.00
13332;DHT22;6735;51.456;12.626;2023-11-19T01:44:02;5.70;90.00
13332;DHT22;6735;51.456;12.626;2023-11-19T01:46:27;5.70;90.00
13332;DHT22;6735;51.456;12.626;2023-11-19T01:48:54;5.70;90.10
13332;DHT22;6735;51.456;12.626;2023-11-19T01:51:21;5.70;90.00
13332;DHT22;6735;51.456;12.626;2023-11-19T01:53:48;5.70;90.00
13332;DHT22;6735;51.456;12.626;2023-11-19T01:56:15;5.70;90.00
13332;DHT22;6735;51.456;12.626;2023-11-19T01:58:42;5.80;90.00
13332;DHT22;6735;51.456;12.626;2023-11-19T02:01:09;5.70;89.90
13332;DHT22;6735;51.456;12.626;2023-11-19T02:03:36;5.80;89.90
13332;DHT22;6735;51.456;12.626;2023-11-19T02:06:03;5.80;89.80
13332;DHT22;6735;51.456;12.626;2023-11-19T02:08:29;5.80;89.80
13332;DHT22;6735;51.456;12.626;2023-11-19T02:10:55;5.80;89.90
13332;DHT22;6735;51.456;12.626;2023-11-19T02:13:23;5.90;89.80
13332;DHT22;6735;51.456;12.626;2023-11-19T02:15:50;5.90;89.90
13332;DHT22;6735;51.456;12.626;2023-11-19T02:18:23;5.90;89.80
13332;DHT22;6735;51.456;12.626;2023-11-19T02:20:50;5.90;89.80
13332;DHT22;6735;51.456;12.626;2023-11-19T02:23:16;5.90;89.70
13332;DHT22;6735;51.456;12.626;2023-11-19T02:25:43;5.90;89.60
13332;DHT22;6735;51.456;12.626;2023-11-19T02:28:12;6.00;89.70
13332;DHT22;6735;51.456;12.626;2023-11-19T02:30:38;6.00;89.70
13332;DHT22;6735;51.456;12.626;2023-11-19T02:33:04;5.90;89.70
13332;DHT22;6735;51.456;12.626;2023-11-19T02:35:32;6.00;89.70
13332;DHT22;6735;51.456;12.626;2023-11-19T02:37:59;6.00;89.60
13332;DHT22;6735;51.456;12.626;2023-11-19T02:40:26;6.00;89.60
13332;DHT22;6735;51.456;12.626;2023-11-19T02:42:53;6.00;89.80
13332;DHT22;6735;51.456;12.626;2023-11-19T02:45:20;6.00;89.50
13332;DHT22;6735;51.456;12.626;2023-11-19T02:47:47;6.10;89.60
13332;DHT22;6735;51.456;12.626;2023-11-19T02:50:13;6.10;89.70
13332;DHT22;6735;51.456;12.626;2023-11-19T02:52:42;6.10;89.70
13332;DHT22;6735;51.456;12.626;2023-11-19T02:55:09;6.10;89.70
13332;DHT22;6735;51.456;12.626;2023-11-19T02:57:38;6.00;89.90
13332;DHT22;6735;51.456;12.626;2023-11-19T03:00:04;6.10;89.90
13332;DHT22;6735;51.456;12.626;2023-11-19T03:02:40;6.00;89.90
13332;DHT22;6735;51.456;12.626;2023-11-19T03:05:11;6.10;89.80
13332;DHT22;6735;51.456;12.626;2023-11-19T03:07:37;6.10;89.80
13332;DHT22;6735;51.456;12.626;2023-11-19T03:10:02;6.10;89.70
13332;DHT22;6735;51.456;12.626;2023-11-19T03:12:31;6.10;89.50
13332;DHT22;6735;51.456;12.626;2023-11-19T03:14:57;6.10;89.50
13332;DHT22;6735;51.456;12.626;2023-11-19T03:17:22;6.10;89.50
13332;DHT22;6735;51.456;12.626;2023-11-19T03:19:49;6.10;89.70
13332;DHT22;6735;51.456;12.626;2023-11-19T03:22:15;6.10;89.70
13332;DHT22;6735;51.456;12.626;2023-11-19T03:24:40;6.10;89.80
13332;DHT22;6735;51.456;12.626;2023-11-19T03:27:05;6.10;89.70
13332;DHT22;6735;51.456;12.626;2023-11-19T03:29:31;6.20;89.50
13332;DHT22;6735;51.456;12.626;2023-11-19T03:31:56;6.20;89.50
13332;DHT22;6735;51.456;12.626;2023-11-19T03:34:22;6.20;89.60
13332;DHT22;6735;51.456;12.626;2023-11-19T03:36:47;6.20;89.60
13332;DHT22;6735;51.456;12.626;2023-11-19T03:39:14;6.20;89.70
13332;DHT22;6735;51.456;12.626;2023-11-19T03:41:39;6.20;89.60
13332;DHT22;6735;51.456;12.626;2023-11-19T03:44:05;6.20;89.60
13332;DHT22;6735;51.456;12.626;2023-11-19T03:46:31;6.20;89.70
13332;DHT22;6735;51.456;12.626;2023-11-19T03:48:56;6.20;89.70
13332;DHT22;6735;51.456;12.626;2023-11-19T03:51:22;6.20;89.70
13332;DHT22;6735;51.456;12.626;2023-11-19T03:53:47;6.20;89.90
13332;DHT22;6735;51.456;12.626;2023-11-19T03:56:13;6.20;90.00
13332;DHT22;6735;51.456;12.626;2023-11-19T03:58:39;6.20;90.10
13332;DHT22;6735;51.456;12.626;2023-11-19T04:01:05;6.20;90.10
13332;DHT22;6735;51.456;12.626;2023-11-19T04:03:31;6.20;90.20
13332;DHT22;6735;51.456;12.626;2023-11-19T04:05:57;6.30;90.30
13332;DHT22;6735;51.456;12.626;2023-11-19T04:08:22;6.30;90.30
13332;DHT22;6735;51.456;12.626;2023-11-19T04:10:48;6.30;90.40
13332;DHT22;6735;51.456;12.626;2023-11-19T04:13:14;6.30;90.40
13332;DHT22;6735;51.456;12.626;2023-11-19T04:15:39;6.30;90.40
13332;DHT22;6735;51.456;12.626;2023-11-19T04:18:05;6.30;90.40
13332;DHT22;6735;51.456;12.626;2023-11-19T04:20:30;6.30;90.50
13332;DHT22;6735;51.456;12.626;2023-11-19T04:22:57;6.30;90.50
13332;DHT22;6735;51.456;12.626;2023-11-19T04:25:22;6.40;90.40
13332;DHT22;6735;51.456;12.626;2023-11-19T04:27:49;6.40;90.50
13332;DHT22;6735;51.456;12.626;2023-11-19T04:30:15;6.40;90.60
13332;DHT22;6735;51.456;12.626;2023-11-19T04:32:41;6.40;90.60
13332;DHT22;6735;51.456;12.626;2023-11-19T04:35:07;6.40;90.70
13332;DHT22;6735;51.456;12.626;2023-11-19T04:37:32;6.40;90.60
13332;DHT22;6735;51.456;12.626;2023-11-19T04:39:58;6.40;90.60
13332;DHT22;6735;51.456;12.626;2023-11-19T04:42:25;6.50;90.70
13332;DHT22;6735;51.456;12.626;2023-11-19T04:44:50;6.50;90.70
13332;DHT22;6735;51.456;12.626;2023-11-19T04:47:16;6.50;90.80
13332;DHT22;6735;51.456;12.626;2023-11-19T04:49:41;6.50;90.90
13332;DHT22;6735;51.456;12.626;2023-11-19T04:52:10;6.50;90.90
13332;DHT22;6735;51.456;12.626;2023-11-19T04:54:43;6.50;91.00
13332;DHT22;6735;51.456;12.626;2023-11-19T04:57:09;6.50;91.00
13332;DHT22;6735;51.456;12.626;2023-11-19T04:59:36;6.50;91.10
13332;DHT22;6735;51.456;12.626;2023-11-19T05:02:02;6.50;91.20
13332;DHT22;6735;51.456;12.626;2023-11-19T05:04:29;6.60;91.20
13332;DHT22;6735;51.456;12.626;2023-11-19T05:06:54;6.60;91.20
13332;DHT22;6735;51.456;12.626;2023-11-19T05:09:20;6.60;91.20
13332;DHT22;6735;51.456;12.626;2023-11-19T05:11:45;6.60;91.20
13332;DHT22;6735;51.456;12.626;2023-11-19T05:14:11;6.70;91.20
13332;DHT22;6735;51.456;12.626;2023-11-19T05:16:39;6.60;91.20
13332;DHT22;6735;51.456;12.626;2023-11-19T05:19:05;6.70;91.20
13332;DHT22;6735;51.456;12.626;2023-11-19T05:21:30;6.70;91.40
13332;DHT22;6735;51.456;12.626;2023-11-19T05:23:56;6.70;91.30
13332;DHT22;6735;51.456;12.626;2023-11-19T05:26:23;6.70;91.30
13332;DHT22;6735;51.456;12.626;2023-11-19T05:28:49;6.80;91.30
13332;DHT22;6735;51.456;12.626;2023-11-19T05:31:16;6.80;91.40
13332;DHT22;6735;51.456;12.626;2023-11-19T05:33:42;6.90;91.40
13332;DHT22;6735;51.456;12.626;2023-11-19T05:36:08;6.90;91.60
13332;DHT22;6735;51.456;12.626;2023-11-19T05:38:35;6.90;91.70
13332;DHT22;6735;51.456;12.626;2023-11-19T05:41:00;6.90;91.60
13332;DHT22;6735;51.456;12.626;2023-11-19T05:43:25;6.90;91.60
13332;DHT22;6735;51.456;12.626;2023-11-19T05:45:51;6.90;91.70
13332;DHT22;6735;51.456;12.626;2023-11-19T05:48:16;7.00;91.70
13332;DHT22;6735;51.456;12.626;2023-11-19T05:50:42;7.00;91.70
13332;DHT22;6735;51.456;12.626;2023-11-19T05:53:08;7.10;91.70
13332;DHT22;6735;51.456;12.626;2023-11-19T05:55:38;7.10;91.70
13332;DHT22;6735;51.456;12.626;2023-11-19T05:58:11;7.10;91.70
13332;DHT22;6735;51.456;12.626;2023-11-19T06:00:38;7.10;91.60
13332;DHT22;6735;51.456;12.626;2023-11-19T06:03:04;7.20;91.50
13332;DHT22;6735;51.456;12.626;2023-11-19T06:05:30;7.10;91.60
13332;DHT22;6735;51.456;12.626;2023-11-19T06:07:55;7.20;91.60
13332;DHT22;6735;51.456;12.626;2023-11-19T06:10:22;7.20;91.50
13332;DHT22;6735;51.456;12.626;2023-11-19T06:12:54;7.20;91.50
13332;DHT22;6735;51.456;12.626;2023-11-19T06:15:21;7.30;91.50
13332;DHT22;6735;51.456;12.626;2023-11-19T06:17:47;7.30;91.50
13332;DHT22;6735;51.456;12.626;2023-11-19T06:20:12;7.30;91.50
13332;DHT22;6735;51.456;12.626;2023-11-19T06:22:39;7.40;91.40
13332;DHT22;6735;51.456;12.626;2023-11-19T06:25:07;7.40;91.30
13332;DHT22;6735;51.456;12.626;2023-11-19T06:27:33;7.40;91.30
13332;DHT22;6735;51.456;12.626;2023-11-19T06:29:59;7.40;91.10
13332;DHT22;6735;51.456;12.626;2023-11-19T06:32:24;7.40;91.20
13332;DHT22;6735;51.456;12.626;2023-11-19T06:34:50;7.40;91.30
13332;DHT22;6735;51.456;12.626;2023-11-19T06:37:15;7.50;91.30
13332;DHT22;6735;51.456;12.626;2023-11-19T06:39:40;7.50;91.20
13332;DHT22;6735;51.456;12.626;2023-11-19T06:42:06;7.50;91.30
13332;DHT22;6735;51.456;12.626;2023-11-19T06:44:32;7.50;91.40
13332;DHT22;6735;51.456;12.626;2023-11-19T06:46:58;7.50;91.50
13332;DHT22;6735;51.456;12.626;2023-11-19T06:49:23;7.60;91.60
13332;DHT22;6735;51.456;12.626;2023-11-19T06:51:50;7.60;91.50
13332;DHT22;6735;51.456;12.626;2023-11-19T06:54:15;7.60;91.40
13332;DHT22;6735;51.456;12.626;2023-11-19T06:56:41;7.60;91.50
13332;DHT22;6735;51.456;12.626;2023-11-19T06:59:07;7.60;91.50
13332;DHT22;6735;51.456;12.626;2023-11-19T07:01:36;7.60;91.40
13332;DHT22;6735;51.456;12.626;2023-11-19T07:04:02;7.60;91.40
13332;DHT22;6735;51.456;12.626;2023-11-19T07:06:35;7.60;91.40
13332;DHT22;6735;51.456;12.626;2023-11-19T07:09:02;7.60;91.50
13332;DHT22;6735;51.456;12.626;2023-11-19T07:11:35;7.60;91.50
13332;DHT22;6735;51.456;12.626;2023-11-19T07:14:02;7.60;91.30
13332;DHT22;6735;51.456;12.626;2023-11-19T07:16:27;7.60;91.40
13332;DHT22;6735;51.456;12.626;2023-11-19T07:18:53;7.60;91.40
13332;DHT22;6735;51.456;12.626;2023-11-19T07:21:19;7.60;91.30
13332;DHT22;6735;51.456;12.626;2023-11-19T07:23:45;7.60;91.40
13332;DHT22;6735;51.456;12.626;2023-11-19T07:26:12;7.60;91.30
13332;DHT22;6735;51.456;12.626;2023-11-19T07:28:37;7.60;91.40
13332;DHT22;6735;51.456;12.626;2023-11-19T07:31:05;7.70;91.50
13332;DHT22;6735;51.456;12.626;2023-11-19T07:33:33;7.80;91.50
13332;DHT22;6735;51.456;12.626;2023-11-19T07:35:59;7.90;91.50
13332;DHT22;6735;51.456;12.626;2023-11-19T07:38:24;8.00;91.60
13332;DHT22;6735;51.456;12.626;2023-11-19T07:40:50;8.10;91.50
13332;DHT22;6735;51.456;12.626;2023-11-19T07:43:15;8.10;91.40
13332;DHT22;6735;51.456;12.626;2023-11-19T07:45:41;8.20;91.20
13332;DHT22;6735;51.456;12.626;2023-11-19T07:48:09;8.20;91.20
13332;DHT22;6735;51.456;12.626;2023-11-19T07:50:34;8.20;91.20
13332;DHT22;6735;51.456;12.626;2023-11-19T07:53:00;8.40;91.10
13332;DHT22;6735;51.456;12.626;2023-11-19T07:55:25;8.40;91.10
13332;DHT22;6735;51.456;12.626;2023-11-19T07:57:52;8.50;91.10
13332;DHT22;6735;51.456;12.626;2023-11-19T08:00:18;8.50;91.20
13332;DHT22;6735;51.456;12.626;2023-11-19T08:02:45;8.60;91.20
13332;DHT22;6735;51.456;12.626;2023-11-19T08:05:10;8.70;91.10
13332;DHT22;6735;51.456;12.626;2023-11-19T08:07:37;8.70;91.00
13332;DHT22;6735;51.456;12.626;2023-11-19T08:10:03;8.80;91.00
13332;DHT22;6735;51.456;12.626;2023-11-19T08:12:30;8.90;90.90
13332;DHT22;6735;51.456;12.626;2023-11-19T08:14:56;8.90;90.80
13332;DHT22;6735;51.456;12.626;2023-11-19T08:17:23;9.00;90.70
13332;DHT22;6735;51.456;12.626;2023-11-19T08:19:49;9.00;90.70
13332;DHT22;6735;51.456;12.626;2023-11-19T08:22:15;9.10;90.70
13332;DHT22;6735;51.456;12.626;2023-11-19T08:24:42;9.10;90.70
13332;DHT22;6735;51.456;12.626;2023-11-19T08:27:07;9.20;90.70
13332;DHT22;6735;51.456;12.626;2023-11-19T08:29:33;9.30;90.70
13332;DHT22;6735;51.456;12.626;2023-11-19T08:32:00;9.40;90.60
13332;DHT22;6735;51.456;12.626;2023-11-19T08:34:27;9.40;90.50
13332;DHT22;6735;51.456;12.626;2023-11-19T08:36:52;9.50;90.30
13332;DHT22;6735;51.456;12.626;2023-11-19T08:39:19;9.50;90.20
13332;DHT22;6735;51.456;12.626;2023-11-19T08:41:44;9.50;90.10
13332;DHT22;6735;51.456;12.626;2023-11-19T08:44:10;9.50;89.90
13332;DHT22;6735;51.456;12.626;2023-11-19T08:46:35;9.50;89.70
13332;DHT22;6735;51.456;12.626;2023-11-19T08:49:01;9.40;89.60
13332;DHT22;6735;51.456;12.626;2023-11-19T08:51:26;9.40;89.70
13332;DHT22;6735;51.456;12.626;2023-11-19T08:53:53;9.40;89.70
13332;DHT22;6735;51.456;12.626;2023-11-19T08:56:19;9.40;89.90
13332;DHT22;6735;51.456;12.626;2023-11-19T08:58:44;9.50;89.90
13332;DHT22;6735;51.456;12.626;2023-11-19T09:01:10;9.50;90.10
13332;DHT22;6735;51.456;12.626;2023-11-19T09:03:35;9.60;90.10
13332;DHT22;6735;51.456;12.626;2023-11-19T09:06:02;9.70;89.90
13332;DHT22;6735;51.456;12.626;2023-11-19T09:08:27;9.80;89.80
13332;DHT22;6735;51.456;12.626;2023-11-19T09:10:53;9.90;89.60
13332;DHT22;6735;51.456;12.626;2023-11-19T09:13:18;9.90;89.50
13332;DHT22;6735;51.456;12.626;2023-11-19T09:15:44;9.90;89.00
13332;DHT22;6735;51.456;12.626;2023-11-19T09:18:09;9.80;88.80
13332;DHT22;6735;51.456;12.626;2023-11-19T09:20:35;9.80;88.80
13332;DHT22;6735;51.456;12.626;2023-11-19T09:23:04;9.90;89.10
13332;DHT22;6735;51.456;12.626;2023-11-19T09:25:30;10.00;89.10
13332;DHT22;6735;51.456;12.626;2023-11-19T09:27:56;10.10;89.00
13332;DHT22;6735;51.456;12.626;2023-11-19T09:30:21;10.10;88.90
13332;DHT22;6735;51.456;12.626;2023-11-19T09:32:48;10.10;88.60
13332;DHT22;6735;51.456;12.626;2023-11-19T09:35:13;10.10;88.50
13332;DHT22;6735;51.456;12.626;2023-11-19T09:37:40;10.10;88.70
13332;DHT22;6735;51.456;12.626;2023-11-19T09:40:07;10.20;88.80
13332;DHT22;6735;51.456;12.626;2023-11-19T09:42:45;10.30;88.90
13332;DHT22;6735;51.456;12.626;2023-11-19T09:45:15;10.40;88.80
13332;DHT22;6735;51.456;12.626;2023-11-19T09:47:44;10.50;88.70
13332;DHT22;6735;51.456;12.626;2023-11-19T09:50:16;10.60;88.50
13332;DHT22;6735;51.456;12.626;2023-11-19T09:52:44;10.70;88.20
13332;DHT22;6735;51.456;12.626;2023-11-19T09:55:09;10.70;88.10
13332;DHT22;6735;51.456;12.626;2023-11-19T09:57:35;10.80;87.70
13332;DHT22;6735;51.456;12.626;2023-11-19T10:00:04;10.80;87.80
13332;DHT22;6735;51.456;12.626;2023-11-19T10:02:31;10.80;87.70
13332;DHT22;6735;51.456;12.626;2023-11-19T10:04:59;10.90;87.40
13332;DHT22;6735;51.456;12.626;2023-11-19T10:07:28;10.90;87.40
13332;DHT22;6735;51.456;12.626;2023-11-19T10:09:54;10.90;87.60
13332;DHT22;6735;51.456;12.626;2023-11-19T10:12:19;10.90;87.50
13332;DHT22;6735;51.456;12.626;2023-11-19T10:14:45;11.00;87.50
13332;DHT22;6735;51.456;12.626;2023-11-19T10:17:11;11.00;87.50
13332;DHT22;6735;51.456;12.626;2023-11-19T10:19:36;11.00;87.50
13332;DHT22;6735;51.456;12.626;2023-11-19T10:22:05;11.00;87.60
13332;DHT22;6735;51.456;12.626;2023-11-19T10:24:32;11.00;87.30
13332;DHT22;6735;51.456;12.626;2023-11-19T10:26:59;11.00;87.40
13332;DHT22;6735;51.456;12.626;2023-11-19T10:29:25;11.00;87.50
13332;DHT22;6735;51.456;12.626;2023-11-19T10:31:57;11.00;87.60
13332;DHT22;6735;51.456;12.626;2023-11-19T10:34:27;11.00;87.70
13332;DHT22;6735;51.456;12.626;2023-11-19T10:36:52;11.10;87.80
13332;DHT22;6735;51.456;12.626;2023-11-19T10:39:18;11.10;87.70
13332;DHT22;6735;51.456;12.626;2023-11-19T10:41:44;11.20;87.70
13332;DHT22;6735;51.456;12.626;2023-11-19T10:44:09;11.20;87.30
13332;DHT22;6735;51.456;12.626;2023-11-19T10:46:37;11.30;87.50
13332;DHT22;6735;51.456;12.626;2023-11-19T10:49:04;11.30;87.40
13332;DHT22;6735;51.456;12.626;2023-11-19T10:51:31;11.40;87.60
13332;DHT22;6735;51.456;12.626;2023-11-19T10:54:06;11.40;87.70
13332;DHT22;6735;51.456;12.626;2023-11-19T10:56:33;11.40;87.80
13332;DHT22;6735;51.456;12.626;2023-11-19T10:58:59;11.40;87.80
13332;DHT22;6735;51.456;12.626;2023-11-19T11:01:35;11.30;88.00
13332;DHT22;6735;51.456;12.626;2023-11-19T11:04:03;11.30;88.10
13332;DHT22;6735;51.456;12.626;2023-11-19T11:06:30;11.20;88.00
13332;DHT22;6735;51.456;12.626;2023-11-19T11:08:56;11.30;88.20
13332;DHT22;6735;51.456;12.626;2023-11-19T11:11:21;11.20;88.50
13332;DHT22;6735;51.456;12.626;2023-11-19T11:13:49;11.20;88.60
13332;DHT22;6735;51.456;12.626;2023-11-19T11:16:18;11.20;88.90
13332;DHT22;6735;51.456;12.626;2023-11-19T11:18:46;11.20;88.90
13332;DHT22;6735;51.456;12.626;2023-11-19T11:21:17;11.20;88.50
13332;DHT22;6735;51.456;12.626;2023-11-19T11:24:16;11.10;88.30
13332;DHT22;6735;51.456;12.626;2023-11-19T11:26:56;11.10;87.80
13332;DHT22;6735;51.456;12.626;2023-11-19T11:32:33;11.10;86.80
13332;DHT22;6735;51.456;12.626;2023-11-19T11:37:46;11.10;86.40
13332;DHT22;6735;51.456;12.626;2023-11-19T11:40:15;11.00;86.20
13332;DHT22;6735;51.456;12.626;2023-11-19T11:42:41;11.00;86.00
13332;DHT22;6735;51.456;12.626;2023-11-19T11:45:11;11.00;85.70
13332;DHT22;6735;51.456;12.626;2023-11-19T11:50:15;10.90;86.30
13332;DHT22;6735;51.456;12.626;2023-11-19T11:55:25;11.00;86.50
13332;DHT22;6735;51.456;12.626;2023-11-19T11:57:51;11.00;86.60
13332;DHT22;6735;51.456;12.626;2023-11-19T12:00:29;10.90;86.70
13332;DHT22;6735;51.456;12.626;2023-11-19T12:02:56;11.10;86.90
13332;DHT22;6735;51.456;12.626;2023-11-19T12:05:22;11.10;86.70
13332;DHT22;6735;51.456;12.626;2023-11-19T12:08:00;11.10;86.90
13332;DHT22;6735;51.456;12.626;2023-11-19T12:10:30;11.10;86.90
13332;DHT22;6735;51.456;12.626;2023-11-19T12:12:59;11.10;87.00
13332;DHT22;6735;51.456;12.626;2023-11-19T12:15:25;11.20;87.00
13332;DHT22;6735;51.456;12.626;2023-11-19T12:17:54;11.30;86.90
13332;DHT22;6735;51.456;12.626;2023-11-19T12:20:33;11.40;86.80
13332;DHT22;6735;51.456;12.626;2023-11-19T12:23:04;11.60;86.80
13332;DHT22;6735;51.456;12.626;2023-11-19T12:25:34;11.60;86.30
13332;DHT22;6735;51.456;12.626;2023-11-19T12:28:00;11.80;86.50
13332;DHT22;6735;51.456;12.626;2023-11-19T12:30:29;11.90;86.10
13332;DHT22;6735;51.456;12.626;2023-11-19T12:32:55;12.00;86.10
13332;DHT22;6735;51.456;12.626;2023-11-19T12:35:21;12.10;86.30
13332;DHT22;6735;51.456;12.626;2023-11-19T12:37:48;12.10;86.00
13332;DHT22;6735;51.456;12.626;2023-11-19T12:42:41;12.20;86.00
13332;DHT22;6735;51.456;12.626;2023-11-19T12:45:07;12.20;85.70
13332;DHT22;6735;51.456;12.626;2023-11-19T12:47:36;12.30;85.10
13332;DHT22;6735;51.456;12.626;2023-11-19T12:50:02;12.40;85.40
13332;DHT22;6735;51.456;12.626;2023-11-19T12:52:27;12.40;85.20
13332;DHT22;6735;51.456;12.626;2023-11-19T12:54:54;12.40;85.30
13332;DHT22;6735;51.456;12.626;2023-11-19T12:57:20;12.50;85.40
13332;DHT22;6735;51.456;12.626;2023-11-19T12:59:55;12.50;84.50
13332;DHT22;6735;51.456;12.626;2023-11-19T13:02:22;12.50;84.90
13332;DHT22;6735;51.456;12.626;2023-11-19T13:04:48;12.50;84.50
13332;DHT22;6735;51.456;12.626;2023-11-19T13:07:20;12.50;84.70
13332;DHT22;6735;51.456;12.626;2023-11-19T13:09:46;12.40;84.50
13332;DHT22;6735;51.456;12.626;2023-11-19T13:12:15;12.40;84.10
13332;DHT22;6735;51.456;12.626;2023-11-19T13:14:41;12.40;84.30
13332;DHT22;6735;51.456;12.626;2023-11-19T13:17:07;12.30;84.10
13332;DHT22;6735;51.456;12.626;2023-11-19T13:19:33;12.20;84.20
13332;DHT22;6735;51.456;12.626;2023-11-19T13:21:59;12.20;84.20
13332;DHT22;6735;51.456;12.626;2023-11-19T13:24:24;12.10;84.60
13332;DHT22;6735;51.456;12.626;2023-11-19T13:26:50;12.10;84.10
13332;DHT22;6735;51.456;12.626;2023-11-19T13:29:15;12.00;83.60
13332;DHT22;6735;51.456;12.626;2023-11-19T13:31:41;12.00;84.10
13332;DHT22;6735;51.456;12.626;2023-11-19T13:34:06;11.90;83.70
13332;DHT22;6735;51.456;12.626;2023-11-19T13:36:33;12.00;83.60
13332;DHT22;6735;51.456;12.626;2023-11-19T13:38:59;12.00;83.00
13332;DHT22;6735;51.456;12.626;2023-11-19T13:41:25;12.10;83.80
13332;DHT22;6735;51.456;12.626;2023-11-19T13:43:51;12.00;83.40
13332;DHT22;6735;51.456;12.626;2023-11-19T13:46:17;12.10;83.40
13332;DHT22;6735;51.456;12.626;2023-11-19T13:48:42;12.10;83.00
13332;DHT22;6735;51.456;12.626;2023-11-19T13:51:08;12.10;83.50
13332;DHT22;6735;51.456;12.626;2023-11-19T13:53:35;12.10;82.60
13332;DHT22;6735;51.456;12.626;2023-11-19T13:56:01;12.20;82.80
13332;DHT22;6735;51.456;12.626;2023-11-19T13:58:26;12.20;81.60
13332;DHT22;6735;51.456;12.626;2023-11-19T14:00:52;12.20;80.90
13332;DHT22;6735;51.456;12.626;2023-11-19T14:03:17;12.20;80.20
13332;DHT22;6735;51.456;12.626;2023-11-19T14:05:43;12.20;81.00
13332;DHT22;6735;51.456;12.626;2023-11-19T14:08:08;12.20;80.60
13332;DHT22;6735;51.456;12.626;2023-11-19T14:10:38;12.20;79.20
13332;DHT22;6735;51.456;12.626;2023-11-19T14:13:07;12.20;80.80
13332;DHT22;6735;51.456;12.626;2023-11-19T14:15:33;12.10;80.60
13332;DHT22;6735;51.456;12.626;2023-11-19T14:17:58;12.10;81.00
13332;DHT22;6735;51.456;12.626;2023-11-19T14:20:24;12.00;79.00
13332;DHT22;6735;51.456;12.626;2023-11-19T14:22:51;11.90;79.90
13332;DHT22;6735;51.456;12.626;2023-11-19T14:25:18;11.80;79.70
13332;DHT22;6735;51.456;12.626;2023-11-19T14:27:44;11.80;80.60
13332;DHT22;6735;51.456;12.626;2023-11-19T14:30:14;11.60;80.30
13332;DHT22;6735;51.456;12.626;2023-11-19T14:32:41;11.60;80.20
13332;DHT22;6735;51.456;12.626;2023-11-19T14:35:11;11.50;80.50
13332;DHT22;6735;51.456;12.626;2023-11-19T14:37:36;11.40;79.80
13332;DHT22;6735;51.456;12.626;2023-11-19T14:40:02;11.40;80.10
13332;DHT22;6735;51.456;12.626;2023-11-19T14:42:30;11.30;80.00
13332;DHT22;6735;51.456;12.626;2023-11-19T14:44:55;11.30;80.40
13332;DHT22;6735;51.456;12.626;2023-11-19T14:47:21;11.20;80.60
13332;DHT22;6735;51.456;12.626;2023-11-19T14:49:47;11.10;81.30
13332;DHT22;6735;51.456;12.626;2023-11-19T14:52:12;11.10;81.30
13332;DHT22;6735;51.456;12.626;2023-11-19T14:54:38;11.00;81.50
13332;DHT22;6735;51.456;12.626;2023-11-19T14:57:04;10.90;81.80
13332;DHT22;6735;51.456;12.626;2023-11-19T14:59:30;10.80;81.90
13332;DHT22;6735;51.456;12.626;2023-11-19T15:01:56;10.70;82.30
13332;DHT22;6735;51.456;12.626;2023-11-19T15:04:22;10.60;82.50
13332;DHT22;6735;51.456;12.626;2023-11-19T15:06:48;10.60;82.60
13332;DHT22;6735;51.456;12.626;2023-11-19T15:09:13;10.50;82.90
13332;DHT22;6735;51.456;12.626;2023-11-19T15:11:43;10.40;83.10
13332;DHT22;6735;51.456;12.626;2023-11-19T15:14:08;10.30;83.20
13332;DHT22;6735;51.456;12.626;2023-11-19T15:16:34;10.30;83.30
13332;DHT22;6735;51.456;12.626;2023-11-19T15:19:00;10.20;83.50
13332;DHT22;6735;51.456;12.626;2023-11-19T15:21:28;10.20;83.70
13332;DHT22;6735;51.456;12.626;2023-11-19T15:23:55;10.10;84.20
13332;DHT22;6735;51.456;12.626;2023-11-19T15:26:20;10.10;83.90
13332;DHT22;6735;51.456;12.626;2023-11-19T15:28:46;10.10;83.90
13332;DHT22;6735;51.456;12.626;2023-11-19T15:31:12;10.20;83.90
13332;DHT22;6735;51.456;12.626;2023-11-19T15:33:38;10.20;83.80
13332;DHT22;6735;51.456;12.626;2023-11-19T15:36:05;10.20;83.60
13332;DHT22;6735;51.456;12.626;2023-11-19T15:38:35;10.20;83.40
13332;DHT22;6735;51.456;12.626;2023-11-19T15:41:01;10.30;83.70
13332;DHT22;6735;51.456;12.626;2023-11-19T15:43:28;10.30;83.40
13332;DHT22;6735;51.456;12.626;2023-11-19T15:45:54;10.40;83.50
13332;DHT22;6735;51.456;12.626;2023-11-19T15:48:20;10.40;83.60
13332;DHT22;6735;51.456;12.626;2023-11-19T15:50:45;10.40;83.90